sensor_id;sensor_type;location;lat;lon;timestamp;P1;durP1;ratioP1;P2;durP2;ratioP2
10667;SDS011;5382;42.136;24.796;2022-10-28T00:00:31;8.75;;;4.32;;
10667;SDS011;5382;42.136;24.796;2022-10-28T00:02:59;10.27;;;4.85;;
10667;SDS011;5382;42.136;24.796;2022-10-28T00:05:27;10.07;;;5.18;;
10667;SDS011;5382;42.136;24.796;2022-10-28T00:07:53;7.45;;;4.70;;
10667;SDS011;5382;42.136;24.796;2022-10-28T00:10:22;8.27;;;4.85;;
10667;SDS011;5382;42.136;24.796;2022-10-28T00:12:48;9.40;;;4.95;;
10667;SDS011;5382;42.136;24.796;2022-10-28T00:15:15;8.35;;;5.28;;
10667;SDS011;5382;42.136;24.796;2022-10-28T00:17:42;13.32;;;5.00;;
10667;SDS011;5382;42.136;24.796;2022-10-28T00:20:09;13.57;;;4.97;;
10667;SDS011;5382;42.136;24.796;2022-10-28T00:22:37;9.75;;;5.22;;
10667;SDS011;5382;42.136;24.796;2022-10-28T00:25:04;8.07;;;4.85;;
10667;SDS011;5382;42.136;24.796;2022-10-28T00:27:32;6.18;;;4.68;;
10667;SDS011;5382;42.136;24.796;2022-10-28T00:29:59;9.40;;;4.75;;
10667;SDS011;5382;42.136;24.796;2022-10-28T00:32:28;8.10;;;4.90;;
10667;SDS011;5382;42.136;24.796;2022-10-28T00:34:54;10.15;;;5.28;;
10667;SDS011;5382;42.136;24.796;2022-10-28T00:37:21;10.00;;;4.68;;
10667;SDS011;5382;42.136;24.796;2022-10-28T00:39:48;8.02;;;4.70;;
10667;SDS011;5382;42.136;24.796;2022-10-28T00:42:20;8.38;;;5.10;;
10667;SDS011;5382;42.136;24.796;2022-10-28T00:44:58;15.35;;;5.57;;
10667;SDS011;5382;42.136;24.796;2022-10-28T00:47:35;10.00;;;5.25;;
10667;SDS011;5382;42.136;24.796;2022-10-28T00:50:14;10.20;;;5.72;;
10667;SDS011;5382;42.136;24.796;2022-10-28T00:52:53;7.93;;;5.72;;
10667;SDS011;5382;42.136;24.796;2022-10-28T00:55:23;6.40;;;4.50;;
10667;SDS011;5382;42.136;24.796;2022-10-28T00:57:51;8.95;;;5.35;;
10667;SDS011;5382;42.136;24.796;2022-10-28T01:00:22;10.02;;;5.20;;
10667;SDS011;5382;42.136;24.796;2022-10-28T01:02:50;12.10;;;4.90;;
10667;SDS011;5382;42.136;24.796;2022-10-28T01:05:19;9.77;;;6.40;;
10667;SDS011;5382;42.136;24.796;2022-10-28T01:07:48;14.88;;;5.00;;
10667;SDS011;5382;42.136;24.796;2022-10-28T01:10:16;12.60;;;6.35;;
10667;SDS011;5382;42.136;24.796;2022-10-28T01:12:47;9.48;;;6.95;;
10667;SDS011;5382;42.136;24.796;2022-10-28T01:15:27;11.60;;;7.40;;
10667;SDS011;5382;42.136;24.796;2022-10-28T01:18:05;12.85;;;6.35;;
10667;SDS011;5382;42.136;24.796;2022-10-28T01:20:56;10.40;;;5.68;;
10667;SDS011;5382;42.136;24.796;2022-10-28T01:23:40;13.45;;;6.30;;
10667;SDS011;5382;42.136;24.796;2022-10-28T01:26:30;14.10;;;6.35;;
10667;SDS011;5382;42.136;24.796;2022-10-28T01:32:28;14.38;;;7.28;;
10667;SDS011;5382;42.136;24.796;2022-10-28T01:35:02;13.50;;;6.95;;
10667;SDS011;5382;42.136;24.796;2022-10-28T01:37:39;10.48;;;6.30;;
10667;SDS011;5382;42.136;24.796;2022-10-28T01:40:15;12.73;;;6.72;;
10667;SDS011;5382;42.136;24.796;2022-10-28T01:42:49;11.48;;;7.07;;
10667;SDS011;5382;42.136;24.796;2022-10-28T01:45:21;12.80;;;7.57;;
10667;SDS011;5382;42.136;24.796;2022-10-28T01:47:54;15.82;;;7.13;;
10667;SDS011;5382;42.136;24.796;2022-10-28T01:50:26;14.32;;;7.13;;
10667;SDS011;5382;42.136;24.796;2022-10-28T01:52:57;12.05;;;7.45;;
10667;SDS011;5382;42.136;24.796;2022-10-28T01:55:29;10.95;;;7.18;;
10667;SDS011;5382;42.136;24.796;2022-10-28T01:57:59;15.50;;;6.78;;
10667;SDS011;5382;42.136;24.796;2022-10-28T02:00:28;13.93;;;8.25;;
10667;SDS011;5382;42.136;24.796;2022-10-28T02:02:58;14.35;;;7.53;;
10667;SDS011;5382;42.136;24.796;2022-10-28T02:05:38;17.10;;;7.82;;
10667;SDS011;5382;42.136;24.796;2022-10-28T02:08:26;11.43;;;7.38;;
10667;SDS011;5382;42.136;24.796;2022-10-28T02:11:09;11.60;;;6.97;;
10667;SDS011;5382;42.136;24.796;2022-10-28T02:13:51;15.68;;;7.47;;
10667;SDS011;5382;42.136;24.796;2022-10-28T02:16:26;13.68;;;7.80;;
10667;SDS011;5382;42.136;24.796;2022-10-28T02:19:04;17.23;;;7.95;;
10667;SDS011;5382;42.136;24.796;2022-10-28T02:21:41;15.52;;;7.63;;
10667;SDS011;5382;42.136;24.796;2022-10-28T02:24:17;12.55;;;8.07;;
10667;SDS011;5382;42.136;24.796;2022-10-28T02:26:46;17.90;;;8.70;;
10667;SDS011;5382;42.136;24.796;2022-10-28T02:29:22;18.92;;;9.25;;
10667;SDS011;5382;42.136;24.796;2022-10-28T02:31:56;15.55;;;8.45;;
10667;SDS011;5382;42.136;24.796;2022-10-28T02:34:29;19.33;;;9.55;;
10667;SDS011;5382;42.136;24.796;2022-10-28T02:37:00;16.80;;;8.10;;
10667;SDS011;5382;42.136;24.796;2022-10-28T02:39:31;16.88;;;8.68;;
10667;SDS011;5382;42.136;24.796;2022-10-28T02:42:02;16.45;;;8.32;;
10667;SDS011;5382;42.136;24.796;2022-10-28T02:44:33;22.88;;;9.38;;
10667;SDS011;5382;42.136;24.796;2022-10-28T02:47:04;16.73;;;9.48;;
10667;SDS011;5382;42.136;24.796;2022-10-28T02:49:36;20.23;;;10.38;;
10667;SDS011;5382;42.136;24.796;2022-10-28T02:52:07;19.25;;;9.80;;
10667;SDS011;5382;42.136;24.796;2022-10-28T02:54:36;18.92;;;10.23;;
10667;SDS011;5382;42.136;24.796;2022-10-28T02:57:07;13.88;;;9.93;;
10667;SDS011;5382;42.136;24.796;2022-10-28T02:59:38;23.67;;;10.80;;
10667;SDS011;5382;42.136;24.796;2022-10-28T03:02:06;16.83;;;9.80;;
10667;SDS011;5382;42.136;24.796;2022-10-28T03:04:33;19.42;;;10.77;;
10667;SDS011;5382;42.136;24.796;2022-10-28T03:07:01;20.77;;;10.27;;
10667;SDS011;5382;42.136;24.796;2022-10-28T03:09:28;16.50;;;8.63;;
10667;SDS011;5382;42.136;24.796;2022-10-28T03:11:55;16.98;;;9.77;;
10667;SDS011;5382;42.136;24.796;2022-10-28T03:14:22;17.60;;;9.40;;
10667;SDS011;5382;42.136;24.796;2022-10-28T03:16:48;16.95;;;9.45;;
10667;SDS011;5382;42.136;24.796;2022-10-28T03:19:15;15.90;;;9.23;;
10667;SDS011;5382;42.136;24.796;2022-10-28T03:21:42;22.38;;;10.48;;
10667;SDS011;5382;42.136;24.796;2022-10-28T03:24:10;17.52;;;10.65;;
10667;SDS011;5382;42.136;24.796;2022-10-28T03:26:37;17.98;;;10.00;;
10667;SDS011;5382;42.136;24.796;2022-10-28T03:29:04;17.55;;;10.38;;
10667;SDS011;5382;42.136;24.796;2022-10-28T03:31:30;16.00;;;9.48;;
10667;SDS011;5382;42.136;24.796;2022-10-28T03:33:57;16.63;;;9.07;;
10667;SDS011;5382;42.136;24.796;2022-10-28T03:36:24;17.52;;;9.48;;
10667;SDS011;5382;42.136;24.796;2022-10-28T03:38:51;18.02;;;9.27;;
10667;SDS011;5382;42.136;24.796;2022-10-28T03:41:19;13.13;;;8.65;;
10667;SDS011;5382;42.136;24.796;2022-10-28T03:43:46;14.80;;;8.55;;
10667;SDS011;5382;42.136;24.796;2022-10-28T03:46:13;20.38;;;9.02;;
10667;SDS011;5382;42.136;24.796;2022-10-28T03:48:40;14.95;;;8.27;;
10667;SDS011;5382;42.136;24.796;2022-10-28T03:51:06;13.20;;;8.93;;
10667;SDS011;5382;42.136;24.796;2022-10-28T03:53:33;17.50;;;9.07;;
10667;SDS011;5382;42.136;24.796;2022-10-28T03:56:00;16.75;;;8.73;;
10667;SDS011;5382;42.136;24.796;2022-10-28T03:58:29;15.32;;;8.88;;
10667;SDS011;5382;42.136;24.796;2022-10-28T04:00:56;14.27;;;8.32;;
10667;SDS011;5382;42.136;24.796;2022-10-28T04:03:23;14.00;;;8.43;;
10667;SDS011;5382;42.136;24.796;2022-10-28T04:05:51;15.98;;;7.60;;
10667;SDS011;5382;42.136;24.796;2022-10-28T04:08:18;14.85;;;8.55;;
10667;SDS011;5382;42.136;24.796;2022-10-28T04:10:45;22.55;;;8.32;;
10667;SDS011;5382;42.136;24.796;2022-10-28T04:13:13;16.27;;;8.82;;
10667;SDS011;5382;42.136;24.796;2022-10-28T04:15:42;18.65;;;8.88;;
10667;SDS011;5382;42.136;24.796;2022-10-28T04:18:09;18.77;;;8.00;;
10667;SDS011;5382;42.136;24.796;2022-10-28T04:20:36;15.18;;;7.93;;
10667;SDS011;5382;42.136;24.796;2022-10-28T04:23:03;16.20;;;7.90;;
10667;SDS011;5382;42.136;24.796;2022-10-28T04:25:30;18.50;;;7.88;;
10667;SDS011;5382;42.136;24.796;2022-10-28T04:27:57;23.45;;;8.45;;
10667;SDS011;5382;42.136;24.796;2022-10-28T04:30:24;20.95;;;7.75;;
10667;SDS011;5382;42.136;24.796;2022-10-28T04:32:52;15.25;;;7.75;;
10667;SDS011;5382;42.136;24.796;2022-10-28T04:35:19;17.52;;;7.70;;
10667;SDS011;5382;42.136;24.796;2022-10-28T04:37:45;27.25;;;8.70;;
10667;SDS011;5382;42.136;24.796;2022-10-28T04:40:12;24.85;;;7.82;;
10667;SDS011;5382;42.136;24.796;2022-10-28T04:42:39;19.98;;;7.70;;
10667;SDS011;5382;42.136;24.796;2022-10-28T04:45:06;15.05;;;7.55;;
10667;SDS011;5382;42.136;24.796;2022-10-28T04:47:33;28.85;;;9.13;;
10667;SDS011;5382;42.136;24.796;2022-10-28T04:50:02;22.20;;;7.53;;
10667;SDS011;5382;42.136;24.796;2022-10-28T04:52:29;20.95;;;7.75;;
10667;SDS011;5382;42.136;24.796;2022-10-28T04:54:55;15.05;;;7.70;;
10667;SDS011;5382;42.136;24.796;2022-10-28T04:57:22;13.45;;;7.20;;
10667;SDS011;5382;42.136;24.796;2022-10-28T04:59:49;24.35;;;8.27;;
10667;SDS011;5382;42.136;24.796;2022-10-28T05:02:16;19.75;;;7.68;;
10667;SDS011;5382;42.136;24.796;2022-10-28T05:04:43;20.42;;;9.52;;
10667;SDS011;5382;42.136;24.796;2022-10-28T05:07:11;27.45;;;8.73;;
10667;SDS011;5382;42.136;24.796;2022-10-28T05:09:39;13.68;;;8.57;;
10667;SDS011;5382;42.136;24.796;2022-10-28T05:12:05;13.45;;;7.72;;
10667;SDS011;5382;42.136;24.796;2022-10-28T05:14:32;17.63;;;9.05;;
10667;SDS011;5382;42.136;24.796;2022-10-28T05:16:59;16.50;;;8.23;;
10667;SDS011;5382;42.136;24.796;2022-10-28T05:19:26;23.10;;;8.63;;
10667;SDS011;5382;42.136;24.796;2022-10-28T05:21:52;22.35;;;9.55;;
10667;SDS011;5382;42.136;24.796;2022-10-28T05:24:21;17.17;;;8.18;;
10667;SDS011;5382;42.136;24.796;2022-10-28T05:26:47;21.15;;;8.73;;
10667;SDS011;5382;42.136;24.796;2022-10-28T05:29:14;20.58;;;8.60;;
10667;SDS011;5382;42.136;24.796;2022-10-28T05:31:43;29.10;;;10.38;;
10667;SDS011;5382;42.136;24.796;2022-10-28T05:34:10;23.25;;;9.95;;
10667;SDS011;5382;42.136;24.796;2022-10-28T05:36:37;21.50;;;10.50;;
10667;SDS011;5382;42.136;24.796;2022-10-28T05:39:04;13.82;;;9.27;;
10667;SDS011;5382;42.136;24.796;2022-10-28T05:41:32;22.73;;;9.02;;
10667;SDS011;5382;42.136;24.796;2022-10-28T05:43:59;18.17;;;8.98;;
10667;SDS011;5382;42.136;24.796;2022-10-28T05:46:25;20.90;;;9.55;;
10667;SDS011;5382;42.136;24.796;2022-10-28T05:48:52;18.05;;;9.90;;
10667;SDS011;5382;42.136;24.796;2022-10-28T05:51:19;26.27;;;9.75;;
10667;SDS011;5382;42.136;24.796;2022-10-28T05:53:46;16.15;;;8.80;;
10667;SDS011;5382;42.136;24.796;2022-10-28T05:56:15;18.70;;;10.60;;
10667;SDS011;5382;42.136;24.796;2022-10-28T05:58:43;21.58;;;10.77;;
10667;SDS011;5382;42.136;24.796;2022-10-28T06:01:10;28.02;;;11.10;;
10667;SDS011;5382;42.136;24.796;2022-10-28T06:03:37;19.13;;;10.18;;
10667;SDS011;5382;42.136;24.796;2022-10-28T06:06:04;17.42;;;7.85;;
10667;SDS011;5382;42.136;24.796;2022-10-28T06:08:31;13.90;;;8.25;;
10667;SDS011;5382;42.136;24.796;2022-10-28T06:10:57;12.40;;;6.22;;
10667;SDS011;5382;42.136;24.796;2022-10-28T06:13:25;14.32;;;5.75;;
10667;SDS011;5382;42.136;24.796;2022-10-28T06:15:53;14.68;;;6.93;;
10667;SDS011;5382;42.136;24.796;2022-10-28T06:18:23;12.80;;;5.55;;
10667;SDS011;5382;42.136;24.796;2022-10-28T06:20:50;10.32;;;5.20;;
10667;SDS011;5382;42.136;24.796;2022-10-28T06:23:18;11.90;;;5.70;;
10667;SDS011;5382;42.136;24.796;2022-10-28T06:25:45;12.90;;;5.30;;
10667;SDS011;5382;42.136;24.796;2022-10-28T06:28:12;10.60;;;6.03;;
10667;SDS011;5382;42.136;24.796;2022-10-28T06:30:38;24.02;;;7.45;;
10667;SDS011;5382;42.136;24.796;2022-10-28T06:33:07;10.75;;;5.72;;
10667;SDS011;5382;42.136;24.796;2022-10-28T06:35:36;9.98;;;5.60;;
10667;SDS011;5382;42.136;24.796;2022-10-28T06:38:03;8.85;;;5.18;;
10667;SDS011;5382;42.136;24.796;2022-10-28T06:40:30;12.15;;;6.15;;
10667;SDS011;5382;42.136;24.796;2022-10-28T06:42:57;14.00;;;5.60;;
10667;SDS011;5382;42.136;24.796;2022-10-28T06:45:24;10.90;;;5.93;;
10667;SDS011;5382;42.136;24.796;2022-10-28T06:47:53;9.13;;;5.63;;
10667;SDS011;5382;42.136;24.796;2022-10-28T06:50:23;12.13;;;5.47;;
10667;SDS011;5382;42.136;24.796;2022-10-28T06:52:50;21.67;;;5.82;;
10667;SDS011;5382;42.136;24.796;2022-10-28T06:55:17;7.75;;;5.03;;
10667;SDS011;5382;42.136;24.796;2022-10-28T06:57:44;26.02;;;5.18;;
10667;SDS011;5382;42.136;24.796;2022-10-28T07:00:11;12.20;;;5.80;;
10667;SDS011;5382;42.136;24.796;2022-10-28T07:02:39;13.90;;;6.43;;
10667;SDS011;5382;42.136;24.796;2022-10-28T07:05:06;8.57;;;4.97;;
10667;SDS011;5382;42.136;24.796;2022-10-28T07:07:35;6.50;;;5.30;;
10667;SDS011;5382;42.136;24.796;2022-10-28T07:10:02;13.20;;;5.05;;
10667;SDS011;5382;42.136;24.796;2022-10-28T07:12:30;6.50;;;4.43;;
10667;SDS011;5382;42.136;24.796;2022-10-28T07:14:57;7.63;;;4.10;;
10667;SDS011;5382;42.136;24.796;2022-10-28T07:17:23;6.97;;;5.07;;
10667;SDS011;5382;42.136;24.796;2022-10-28T07:19:50;9.98;;;4.85;;
10667;SDS011;5382;42.136;24.796;2022-10-28T07:22:17;8.50;;;4.90;;
10667;SDS011;5382;42.136;24.796;2022-10-28T07:24:45;8.88;;;5.60;;
10667;SDS011;5382;42.136;24.796;2022-10-28T07:27:12;13.25;;;5.57;;
10667;SDS011;5382;42.136;24.796;2022-10-28T07:29:39;9.07;;;5.40;;
10667;SDS011;5382;42.136;24.796;2022-10-28T07:32:06;8.60;;;4.90;;
10667;SDS011;5382;42.136;24.796;2022-10-28T07:34:41;15.10;;;7.05;;
10667;SDS011;5382;42.136;24.796;2022-10-28T07:37:10;12.27;;;5.47;;
10667;SDS011;5382;42.136;24.796;2022-10-28T07:39:37;10.25;;;5.00;;
10667;SDS011;5382;42.136;24.796;2022-10-28T07:42:05;7.88;;;3.95;;
10667;SDS011;5382;42.136;24.796;2022-10-28T07:44:32;10.32;;;5.18;;
10667;SDS011;5382;42.136;24.796;2022-10-28T07:46:58;11.32;;;5.40;;
10667;SDS011;5382;42.136;24.796;2022-10-28T07:49:25;10.43;;;5.30;;
10667;SDS011;5382;42.136;24.796;2022-10-28T07:51:52;7.90;;;4.55;;
10667;SDS011;5382;42.136;24.796;2022-10-28T07:54:19;9.10;;;4.35;;
10667;SDS011;5382;42.136;24.796;2022-10-28T07:56:46;8.25;;;4.70;;
10667;SDS011;5382;42.136;24.796;2022-10-28T07:59:14;12.55;;;4.20;;
10667;SDS011;5382;42.136;24.796;2022-10-28T08:01:44;13.02;;;4.95;;
10667;SDS011;5382;42.136;24.796;2022-10-28T08:04:11;8.75;;;4.90;;
10667;SDS011;5382;42.136;24.796;2022-10-28T08:06:39;11.40;;;5.43;;
10667;SDS011;5382;42.136;24.796;2022-10-28T08:09:06;7.78;;;5.80;;
10667;SDS011;5382;42.136;24.796;2022-10-28T08:11:33;14.18;;;6.25;;
10667;SDS011;5382;42.136;24.796;2022-10-28T08:14:00;10.25;;;5.30;;
10667;SDS011;5382;42.136;24.796;2022-10-28T08:16:29;8.77;;;4.38;;
10667;SDS011;5382;42.136;24.796;2022-10-28T08:18:55;10.45;;;5.15;;
10667;SDS011;5382;42.136;24.796;2022-10-28T08:21:22;12.10;;;6.15;;
10667;SDS011;5382;42.136;24.796;2022-10-28T08:23:52;15.18;;;5.38;;
10667;SDS011;5382;42.136;24.796;2022-10-28T08:26:19;9.00;;;5.03;;
10667;SDS011;5382;42.136;24.796;2022-10-28T08:28:46;12.45;;;5.85;;
10667;SDS011;5382;42.136;24.796;2022-10-28T08:31:13;8.77;;;5.22;;
10667;SDS011;5382;42.136;24.796;2022-10-28T08:33:41;11.80;;;5.10;;
10667;SDS011;5382;42.136;24.796;2022-10-28T08:36:09;13.23;;;4.82;;
10667;SDS011;5382;42.136;24.796;2022-10-28T08:38:37;7.75;;;4.25;;
10667;SDS011;5382;42.136;24.796;2022-10-28T08:41:07;7.85;;;5.07;;
10667;SDS011;5382;42.136;24.796;2022-10-28T08:43:51;9.15;;;5.47;;
10667;SDS011;5382;42.136;24.796;2022-10-28T08:46:45;10.73;;;5.63;;
10667;SDS011;5382;42.136;24.796;2022-10-28T08:49:23;10.95;;;4.80;;
10667;SDS011;5382;42.136;24.796;2022-10-28T08:51:51;11.05;;;5.03;;
10667;SDS011;5382;42.136;24.796;2022-10-28T08:54:22;7.85;;;4.00;;
10667;SDS011;5382;42.136;24.796;2022-10-28T08:56:52;9.05;;;4.15;;
10667;SDS011;5382;42.136;24.796;2022-10-28T08:59:22;9.38;;;4.20;;
10667;SDS011;5382;42.136;24.796;2022-10-28T09:01:55;9.63;;;3.83;;
10667;SDS011;5382;42.136;24.796;2022-10-28T09:04:27;7.85;;;4.07;;
10667;SDS011;5382;42.136;24.796;2022-10-28T09:07:03;11.43;;;4.13;;
10667;SDS011;5382;42.136;24.796;2022-10-28T09:09:31;12.10;;;4.50;;
10667;SDS011;5382;42.136;24.796;2022-10-28T09:12:04;11.70;;;4.28;;
10667;SDS011;5382;42.136;24.796;2022-10-28T09:14:55;6.45;;;3.70;;
10667;SDS011;5382;42.136;24.796;2022-10-28T09:17:35;10.57;;;4.05;;
10667;SDS011;5382;42.136;24.796;2022-10-28T09:20:16;6.38;;;4.13;;
10667;SDS011;5382;42.136;24.796;2022-10-28T09:22:47;6.30;;;3.72;;
10667;SDS011;5382;42.136;24.796;2022-10-28T09:25:21;8.18;;;3.55;;
10667;SDS011;5382;42.136;24.796;2022-10-28T09:27:59;5.43;;;3.08;;
10667;SDS011;5382;42.136;24.796;2022-10-28T09:30:35;6.35;;;3.97;;
10667;SDS011;5382;42.136;24.796;2022-10-28T09:33:15;5.60;;;3.67;;
10667;SDS011;5382;42.136;24.796;2022-10-28T09:35:52;10.05;;;3.90;;
10667;SDS011;5382;42.136;24.796;2022-10-28T09:38:24;5.18;;;3.08;;
10667;SDS011;5382;42.136;24.796;2022-10-28T09:40:55;6.47;;;3.50;;
10667;SDS011;5382;42.136;24.796;2022-10-28T09:43:28;5.32;;;3.42;;
10667;SDS011;5382;42.136;24.796;2022-10-28T09:45:59;5.00;;;3.22;;
10667;SDS011;5382;42.136;24.796;2022-10-28T09:48:30;9.00;;;3.60;;
10667;SDS011;5382;42.136;24.796;2022-10-28T09:51:00;5.82;;;3.60;;
10667;SDS011;5382;42.136;24.796;2022-10-28T09:53:30;6.85;;;4.25;;
10667;SDS011;5382;42.136;24.796;2022-10-28T09:56:04;6.53;;;3.65;;
10667;SDS011;5382;42.136;24.796;2022-10-28T09:58:32;4.78;;;3.08;;
10667;SDS011;5382;42.136;24.796;2022-10-28T10:00:59;6.40;;;3.08;;
10667;SDS011;5382;42.136;24.796;2022-10-28T10:03:27;9.25;;;3.63;;
10667;SDS011;5382;42.136;24.796;2022-10-28T10:05:55;5.00;;;3.67;;
10667;SDS011;5382;42.136;24.796;2022-10-28T10:08:25;5.85;;;3.42;;
10667;SDS011;5382;42.136;24.796;2022-10-28T10:10:53;7.45;;;3.67;;
10667;SDS011;5382;42.136;24.796;2022-10-28T10:13:26;6.43;;;3.65;;
10667;SDS011;5382;42.136;24.796;2022-10-28T10:15:55;8.50;;;3.60;;
10667;SDS011;5382;42.136;24.796;2022-10-28T10:18:27;7.15;;;3.50;;
10667;SDS011;5382;42.136;24.796;2022-10-28T10:20:57;5.78;;;3.15;;
10667;SDS011;5382;42.136;24.796;2022-10-28T10:23:29;6.72;;;3.20;;
10667;SDS011;5382;42.136;24.796;2022-10-28T10:25:58;5.78;;;3.47;;
10667;SDS011;5382;42.136;24.796;2022-10-28T10:28:28;6.43;;;3.35;;
10667;SDS011;5382;42.136;24.796;2022-10-28T10:30:56;6.82;;;2.85;;
10667;SDS011;5382;42.136;24.796;2022-10-28T10:33:25;7.47;;;3.30;;
10667;SDS011;5382;42.136;24.796;2022-10-28T10:35:57;5.00;;;2.90;;
10667;SDS011;5382;42.136;24.796;2022-10-28T10:38:27;11.80;;;3.63;;
10667;SDS011;5382;42.136;24.796;2022-10-28T10:40:56;11.73;;;3.42;;
10667;SDS011;5382;42.136;24.796;2022-10-28T10:43:28;7.07;;;3.53;;
10667;SDS011;5382;42.136;24.796;2022-10-28T10:46:00;7.82;;;2.17;;
10667;SDS011;5382;42.136;24.796;2022-10-28T10:48:29;3.53;;;2.38;;
10667;SDS011;5382;42.136;24.796;2022-10-28T10:51:03;5.97;;;2.60;;
10667;SDS011;5382;42.136;24.796;2022-10-28T10:53:34;9.60;;;3.08;;
10667;SDS011;5382;42.136;24.796;2022-10-28T10:56:03;7.15;;;2.50;;
10667;SDS011;5382;42.136;24.796;2022-10-28T10:58:34;2.38;;;2.15;;
10667;SDS011;5382;42.136;24.796;2022-10-28T11:01:03;3.22;;;2.05;;
10667;SDS011;5382;42.136;24.796;2022-10-28T11:03:34;7.88;;;2.45;;
10667;SDS011;5382;42.136;24.796;2022-10-28T11:06:04;3.50;;;2.72;;
10667;SDS011;5382;42.136;24.796;2022-10-28T11:08:36;4.53;;;2.25;;
10667;SDS011;5382;42.136;24.796;2022-10-28T11:11:06;5.07;;;2.10;;
10667;SDS011;5382;42.136;24.796;2022-10-28T11:13:38;2.60;;;1.80;;
10667;SDS011;5382;42.136;24.796;2022-10-28T11:16:06;7.00;;;2.40;;
10667;SDS011;5382;42.136;24.796;2022-10-28T11:18:43;3.95;;;2.10;;
10667;SDS011;5382;42.136;24.796;2022-10-28T11:21:33;5.25;;;2.55;;
10667;SDS011;5382;42.136;24.796;2022-10-28T11:24:23;4.40;;;2.20;;
10667;SDS011;5382;42.136;24.796;2022-10-28T11:27:02;3.70;;;2.08;;
10667;SDS011;5382;42.136;24.796;2022-10-28T11:29:38;13.23;;;2.63;;
10667;SDS011;5382;42.136;24.796;2022-10-28T11:32:07;3.60;;;1.40;;
10667;SDS011;5382;42.136;24.796;2022-10-28T11:34:45;5.03;;;2.25;;
10667;SDS011;5382;42.136;24.796;2022-10-28T11:37:27;3.55;;;1.80;;
10667;SDS011;5382;42.136;24.796;2022-10-28T11:40:13;3.40;;;1.80;;
10667;SDS011;5382;42.136;24.796;2022-10-28T11:42:54;2.83;;;1.60;;
10667;SDS011;5382;42.136;24.796;2022-10-28T11:45:33;8.45;;;1.98;;
10667;SDS011;5382;42.136;24.796;2022-10-28T11:48:14;22.08;;;2.88;;
10667;SDS011;5382;42.136;24.796;2022-10-28T11:50:54;3.42;;;2.22;;
10667;SDS011;5382;42.136;24.796;2022-10-28T11:53:44;3.65;;;1.98;;
10667;SDS011;5382;42.136;24.796;2022-10-28T11:56:28;5.00;;;2.03;;
10667;SDS011;5382;42.136;24.796;2022-10-28T11:59:10;192.95;;;12.48;;
10667;SDS011;5382;42.136;24.796;2022-10-28T12:02:00;5.43;;;1.90;;
10667;SDS011;5382;42.136;24.796;2022-10-28T12:04:44;3.95;;;1.88;;
10667;SDS011;5382;42.136;24.796;2022-10-28T12:07:29;5.40;;;1.60;;
10667;SDS011;5382;42.136;24.796;2022-10-28T12:10:34;4.15;;;1.80;;
10667;SDS011;5382;42.136;24.796;2022-10-28T12:13:18;2.42;;;1.98;;
10667;SDS011;5382;42.136;24.796;2022-10-28T12:15:54;7.97;;;2.20;;
10667;SDS011;5382;42.136;24.796;2022-10-28T12:18:27;3.47;;;1.90;;
10667;SDS011;5382;42.136;24.796;2022-10-28T12:21:01;3.90;;;1.80;;
10667;SDS011;5382;42.136;24.796;2022-10-28T12:23:32;4.45;;;1.88;;
10667;SDS011;5382;42.136;24.796;2022-10-28T12:26:04;4.82;;;1.98;;
10667;SDS011;5382;42.136;24.796;2022-10-28T12:28:38;2.25;;;1.70;;
10667;SDS011;5382;42.136;24.796;2022-10-28T12:31:13;4.95;;;1.77;;
10667;SDS011;5382;42.136;24.796;2022-10-28T12:33:44;7.40;;;2.17;;
10667;SDS011;5382;42.136;24.796;2022-10-28T12:36:17;5.57;;;2.17;;
10667;SDS011;5382;42.136;24.796;2022-10-28T12:38:50;6.80;;;2.40;;
10667;SDS011;5382;42.136;24.796;2022-10-28T12:41:23;8.40;;;2.17;;
10667;SDS011;5382;42.136;24.796;2022-10-28T12:43:54;2.95;;;1.83;;
10667;SDS011;5382;42.136;24.796;2022-10-28T12:46:29;4.25;;;1.50;;
10667;SDS011;5382;42.136;24.796;2022-10-28T12:49:09;4.07;;;1.98;;
10667;SDS011;5382;42.136;24.796;2022-10-28T12:51:45;4.35;;;1.92;;
10667;SDS011;5382;42.136;24.796;2022-10-28T12:54:15;6.22;;;2.00;;
10667;SDS011;5382;42.136;24.796;2022-10-28T12:56:48;4.07;;;1.90;;
10667;SDS011;5382;42.136;24.796;2022-10-28T12:59:19;4.88;;;1.95;;
10667;SDS011;5382;42.136;24.796;2022-10-28T13:01:51;5.20;;;2.20;;
10667;SDS011;5382;42.136;24.796;2022-10-28T13:04:18;7.05;;;2.75;;
10667;SDS011;5382;42.136;24.796;2022-10-28T13:06:59;8.77;;;2.50;;
10667;SDS011;5382;42.136;24.796;2022-10-28T13:09:41;7.00;;;2.28;;
10667;SDS011;5382;42.136;24.796;2022-10-28T13:12:23;5.15;;;2.10;;
10667;SDS011;5382;42.136;24.796;2022-10-28T13:18:25;2.70;;;1.83;;
10667;SDS011;5382;42.136;24.796;2022-10-28T13:21:25;8.10;;;2.25;;
10667;SDS011;5382;42.136;24.796;2022-10-28T13:24:02;5.53;;;2.97;;
10667;SDS011;5382;42.136;24.796;2022-10-28T13:26:39;6.07;;;2.47;;
10667;SDS011;5382;42.136;24.796;2022-10-28T13:29:15;4.30;;;2.00;;
10667;SDS011;5382;42.136;24.796;2022-10-28T13:31:47;4.15;;;1.85;;
10667;SDS011;5382;42.136;24.796;2022-10-28T13:34:15;6.28;;;2.10;;
10667;SDS011;5382;42.136;24.796;2022-10-28T13:36:45;4.43;;;2.63;;
10667;SDS011;5382;42.136;24.796;2022-10-28T13:39:22;3.60;;;2.00;;
10667;SDS011;5382;42.136;24.796;2022-10-28T13:44:50;2.80;;;2.00;;
10667;SDS011;5382;42.136;24.796;2022-10-28T13:47:24;5.70;;;2.05;;
10667;SDS011;5382;42.136;24.796;2022-10-28T13:56:26;3.60;;;2.10;;
10667;SDS011;5382;42.136;24.796;2022-10-28T13:58:58;4.20;;;2.10;;
10667;SDS011;5382;42.136;24.796;2022-10-28T14:01:36;5.15;;;2.53;;
10667;SDS011;5382;42.136;24.796;2022-10-28T14:04:26;3.65;;;2.13;;
10667;SDS011;5382;42.136;24.796;2022-10-28T14:07:03;5.18;;;2.38;;
10667;SDS011;5382;42.136;24.796;2022-10-28T14:09:40;4.70;;;2.15;;
10667;SDS011;5382;42.136;24.796;2022-10-28T14:12:13;5.40;;;2.40;;
10667;SDS011;5382;42.136;24.796;2022-10-28T14:17:43;12.63;;;3.08;;
10667;SDS011;5382;42.136;24.796;2022-10-28T14:26:08;3.08;;;2.10;;
10667;SDS011;5382;42.136;24.796;2022-10-28T14:28:53;6.47;;;2.55;;
10667;SDS011;5382;42.136;24.796;2022-10-28T14:31:43;16.75;;;3.35;;
10667;SDS011;5382;42.136;24.796;2022-10-28T14:37:29;6.45;;;2.70;;
10667;SDS011;5382;42.136;24.796;2022-10-28T14:40:22;6.47;;;2.47;;
10667;SDS011;5382;42.136;24.796;2022-10-28T14:42:59;7.82;;;2.20;;
10667;SDS011;5382;42.136;24.796;2022-10-28T14:45:38;6.07;;;2.50;;
10667;SDS011;5382;42.136;24.796;2022-10-28T14:51:22;10.02;;;2.60;;
10667;SDS011;5382;42.136;24.796;2022-10-28T14:53:53;9.43;;;2.83;;
10667;SDS011;5382;42.136;24.796;2022-10-28T14:56:23;7.45;;;3.00;;
10667;SDS011;5382;42.136;24.796;2022-10-28T14:58:51;5.30;;;3.05;;
10667;SDS011;5382;42.136;24.796;2022-10-28T15:01:23;6.43;;;2.47;;
10667;SDS011;5382;42.136;24.796;2022-10-28T15:03:52;16.42;;;3.30;;
10667;SDS011;5382;42.136;24.796;2022-10-28T15:06:27;11.68;;;2.63;;
10667;SDS011;5382;42.136;24.796;2022-10-28T15:09:03;3.78;;;2.70;;
10667;SDS011;5382;42.136;24.796;2022-10-28T15:11:32;13.88;;;4.63;;
10667;SDS011;5382;42.136;24.796;2022-10-28T15:14:11;31.88;;;10.38;;
10667;SDS011;5382;42.136;24.796;2022-10-28T15:16:49;6.38;;;2.88;;
10667;SDS011;5382;42.136;24.796;2022-10-28T15:19:17;9.73;;;4.03;;
10667;SDS011;5382;42.136;24.796;2022-10-28T15:21:59;7.55;;;3.53;;
10667;SDS011;5382;42.136;24.796;2022-10-28T15:24:28;6.82;;;2.97;;
10667;SDS011;5382;42.136;24.796;2022-10-28T15:26:55;15.38;;;4.00;;
10667;SDS011;5382;42.136;24.796;2022-10-28T15:29:22;15.75;;;4.20;;
10667;SDS011;5382;42.136;24.796;2022-10-28T15:32:04;18.40;;;3.35;;
10667;SDS011;5382;42.136;24.796;2022-10-28T15:34:31;17.33;;;4.05;;
10667;SDS011;5382;42.136;24.796;2022-10-28T15:36:58;11.52;;;3.47;;